Time;durP1;ratioP1;P1;durP2;ratioP2;P2;SDS_P1;SDS_P2;PMS_P1;PMS_P2;Temp;Humidity;BMP_temperature;BMP_pressure;BME280_temperature;BME280_humidity;BME280_pressure;Samples;Min_cycle;Max_cycle;Signal;HPM_P1;HPM_P2
2022/07/08 00:00:42;;;;;;;7.93;2.80;;;13.50;99.90;;;;;;6254494;22;20003;-86
2022/07/08 00:03:08;;;;;;;8.45;2.42;;;13.50;99.90;;;;;;6253848;22;20011;-86
2022/07/08 00:05:34;;;;;;;7.95;2.25;;;13.50;99.90;;;;;;6279704;22;20034;-86
2022/07/08 00:08:00;;;;;;;8.20;2.30;;;13.50;99.90;;;;;;6253881;22;20447;-86
2022/07/08 00:10:26;;;;;;;8.57;2.30;;;13.40;99.90;;;;;;6254457;22;20007;-85
2022/07/08 00:12:51;;;;;;;11.23;2.20;;;13.40;99.90;;;;;;6279463;22;20083;-85
2022/07/08 00:15:17;;;;;;;6.25;2.08;;;13.30;99.90;;;;;;6279378;22;20015;-84
2022/07/08 00:17:42;;;;;;;11.30;2.38;;;13.20;99.90;;;;;;6279230;22;20094;-85
2022/07/08 00:20:09;;;;;;;5.72;2.08;;;13.20;99.90;;;;;;6253904;22;20466;-86
2022/07/08 00:22:36;;;;;;;8.75;2.13;;;13.10;99.90;;;;;;6253176;22;20007;-85
2022/07/08 00:25:02;;;;;;;8.38;2.60;;;13.00;99.90;;;;;;6279922;22;20317;-86
2022/07/08 00:27:28;;;;;;;8.55;2.42;;;12.90;99.90;;;;;;6254551;22;20007;-85
2022/07/08 00:29:53;;;;;;;7.47;2.40;;;12.90;99.90;;;;;;6253431;22;20065;-86
2022/07/08 00:32:19;;;;;;;7.07;2.90;;;12.80;99.90;;;;;;6252160;22;20019;-86
2022/07/08 00:34:44;;;;;;;8.50;2.55;;;12.80;99.90;;;;;;6253088;22;20046;-86
2022/07/08 00:37:10;;;;;;;8.32;2.42;;;12.80;99.90;;;;;;6253891;22;20011;-86
2022/07/08 00:39:37;;;;;;;12.63;2.78;;;12.80;99.90;;;;;;6279088;22;20041;-85
2022/07/08 00:42:03;;;;;;;11.80;3.03;;;12.80;99.90;;;;;;6253527;22;20011;-85
2022/07/08 00:44:29;;;;;;;8.35;3.15;;;12.60;99.90;;;;;;6254101;22;20003;-85
2022/07/08 00:46:56;;;;;;;10.65;2.72;;;12.60;99.90;;;;;;6254254;22;20019;-84
2022/07/08 00:49:22;;;;;;;10.40;2.75;;;12.60;99.90;;;;;;6253375;22;20007;-85
2022/07/08 00:51:49;;;;;;;7.30;2.83;;;12.50;99.90;;;;;;6253584;22;20050;-85
2022/07/08 00:54:18;;;;;;;6.18;2.90;;;12.50;99.90;;;;;;6252805;22;20060;-85
2022/07/08 00:56:44;;;;;;;5.45;2.75;;;12.50;99.90;;;;;;6254251;22;20013;-85
2022/07/08 00:59:10;;;;;;;6.43;2.97;;;12.50;99.90;;;;;;6253160;22;20007;-85
2022/07/08 01:01:36;;;;;;;8.43;2.90;;;12.40;99.90;;;;;;6253810;22;20018;-85
2022/07/08 01:04:03;;;;;;;7.80;2.78;;;12.40;99.90;;;;;;6253345;22;20014;-85
2022/07/08 01:06:29;;;;;;;8.52;3.10;;;12.50;99.90;;;;;;6253994;22;20060;-85
2022/07/08 01:08:55;;;;;;;7.55;2.75;;;12.40;99.90;;;;;;6278241;22;20008;-85
2022/07/08 01:11:21;;;;;;;9.55;2.90;;;12.60;99.90;;;;;;6279486;22;20064;-85
2022/07/08 01:13:47;;;;;;;10.60;2.92;;;12.60;99.90;;;;;;6252514;22;20022;-85
2022/07/08 01:16:13;;;;;;;7.47;3.30;;;12.60;99.90;;;;;;6253812;22;20436;-85
2022/07/08 01:18:40;;;;;;;7.43;3.03;;;12.60;99.90;;;;;;6252925;22;20019;-86
2022/07/08 01:21:07;;;;;;;8.57;3.17;;;12.60;99.90;;;;;;6279282;22;20011;-86
2022/07/08 01:23:32;;;;;;;8.15;3.10;;;12.60;99.90;;;;;;6253122;22;20033;-86
2022/07/08 01:25:59;;;;;;;8.80;2.70;;;12.70;99.90;;;;;;6253936;22;20003;-86
2022/07/08 01:28:25;;;;;;;7.57;2.72;;;12.70;99.90;;;;;;6253087;22;20025;-85
2022/07/08 01:30:51;;;;;;;8.25;3.40;;;12.70;99.90;;;;;;6253036;22;20075;-85
2022/07/08 01:33:17;;;;;;;9.45;3.40;;;12.60;99.90;;;;;;6252615;22;20027;-85
2022/07/08 01:35:43;;;;;;;11.30;3.08;;;12.60;99.90;;;;;;6253784;22;20011;-85
2022/07/08 01:38:09;;;;;;;10.57;2.83;;;12.70;99.90;;;;;;6253208;22;20014;-85
2022/07/08 01:40:35;;;;;;;6.93;2.60;;;12.70;99.90;;;;;;6253617;22;20086;-85
2022/07/08 01:43:00;;;;;;;7.10;2.47;;;12.70;99.90;;;;;;6252717;22;20015;-85
2022/07/08 01:45:26;;;;;;;8.85;2.70;;;12.60;99.90;;;;;;6278088;22;20054;-85
2022/07/08 01:47:52;;;;;;;8.70;2.60;;;12.60;99.90;;;;;;6252515;22;20455;-85
2022/07/08 01:50:18;;;;;;;9.35;3.15;;;12.60;99.90;;;;;;6252981;22;20400;-85
2022/07/08 01:52:43;;;;;;;7.35;2.63;;;12.50;99.90;;;;;;6253565;22;20007;-85
2022/07/08 01:55:09;;;;;;;8.63;2.70;;;12.40;99.90;;;;;;6278485;22;20047;-85
2022/07/08 01:57:34;;;;;;;7.85;2.70;;;12.30;99.90;;;;;;6253453;22;20098;-85
2022/07/08 02:00:00;;;;;;;7.80;2.90;;;12.30;99.90;;;;;;6252674;22;20507;-85
2022/07/08 02:02:26;;;;;;;8.32;2.50;;;12.20;99.90;;;;;;6252586;22;20003;-84
2022/07/08 02:04:52;;;;;;;8.63;3.20;;;12.20;99.90;;;;;;6252824;22;20524;-85
2022/07/08 02:07:18;;;;;;;7.82;2.90;;;12.10;99.90;;;;;;6252897;22;20007;-84
2022/07/08 02:09:44;;;;;;;5.05;2.42;;;12.10;99.90;;;;;;6252409;22;20102;-85
2022/07/08 02:12:19;;;;;;;10.68;2.70;;;12.10;99.90;;;;;;6253326;22;20022;-85
2022/07/08 02:14:51;;;;;;;9.80;2.95;;;12.00;99.90;;;;;;6252661;22;20410;-85
2022/07/08 02:17:18;;;;;;;8.55;2.70;;;11.90;99.90;;;;;;6252707;22;20007;-85
2022/07/08 02:19:44;;;;;;;7.10;3.13;;;12.00;99.90;;;;;;6251917;22;20016;-85
2022/07/08 02:22:11;;;;;;;6.57;2.60;;;11.80;99.90;;;;;;6252953;22;20082;-85
2022/07/08 02:24:37;;;;;;;8.27;2.63;;;11.70;99.90;;;;;;6252813;22;20150;-85
2022/07/08 02:27:04;;;;;;;10.18;3.22;;;11.70;99.90;;;;;;6278676;22;20086;-85
2022/07/08 02:29:30;;;;;;;7.97;3.20;;;11.60;99.90;;;;;;6252196;22;20011;-85
2022/07/08 02:31:56;;;;;;;9.32;2.97;;;11.60;99.90;;;;;;6252986;22;20022;-85
2022/07/08 02:34:23;;;;;;;10.05;3.30;;;11.60;99.90;;;;;;6253091;22;20042;-85
2022/07/08 02:36:48;;;;;;;13.57;3.63;;;11.60;99.90;;;;;;6252798;22;20026;-85
2022/07/08 02:39:14;;;;;;;6.60;2.80;;;11.50;99.90;;;;;;6252182;22;20018;-85
2022/07/08 02:41:41;;;;;;;10.70;3.28;;;11.40;99.90;;;;;;6278270;22;20007;-85
2022/07/08 02:44:07;;;;;;;10.07;3.70;;;11.40;99.90;;;;;;6278420;22;20011;-85
2022/07/08 02:46:37;;;;;;;10.68;3.60;;;11.40;99.90;;;;;;6278210;22;20082;-86
2022/07/08 02:49:03;;;;;;;8.73;3.60;;;11.40;99.90;;;;;;6252138;22;20011;-86
2022/07/08 02:51:28;;;;;;;7.65;3.72;;;11.30;99.90;;;;;;6253024;22;20011;-85
2022/07/08 02:53:54;;;;;;;6.07;3.90;;;11.20;99.90;;;;;;6252200;22;20015;-85
2022/07/08 02:56:20;;;;;;;12.13;4.63;;;11.20;99.90;;;;;;6252554;22;20039;-85
2022/07/08 02:58:46;;;;;;;9.80;3.97;;;11.20;99.90;;;;;;6277569;22;20466;-86
2022/07/08 03:01:11;;;;;;;10.52;4.13;;;11.20;99.90;;;;;;6252961;22;20090;-86
2022/07/08 03:03:37;;;;;;;8.75;4.20;;;11.10;99.90;;;;;;6252840;22;20052;-86
2022/07/08 03:06:03;;;;;;;6.65;3.40;;;11.10;99.90;;;;;;6252519;22;20397;-85
2022/07/08 03:08:29;;;;;;;11.00;4.50;;;11.10;99.90;;;;;;6277657;22;20004;-85
2022/07/08 03:10:54;;;;;;;7.32;3.80;;;11.00;99.90;;;;;;6278573;22;20061;-86
2022/07/08 03:13:20;;;;;;;10.43;4.10;;;11.00;99.90;;;;;;6252975;22;20094;-86
2022/07/08 03:15:45;;;;;;;8.88;3.88;;;11.00;99.90;;;;;;6252635;22;20007;-85
2022/07/08 03:18:11;;;;;;;8.07;3.80;;;10.90;99.90;;;;;;6251648;22;20042;-86
2022/07/08 03:20:37;;;;;;;10.55;3.47;;;10.90;99.90;;;;;;6252975;22;20084;-85
2022/07/08 03:23:02;;;;;;;10.38;3.72;;;10.90;99.90;;;;;;6253534;22;20011;-85
2022/07/08 03:25:29;;;;;;;9.98;3.90;;;10.90;99.90;;;;;;6252089;22;20010;-85
2022/07/08 03:27:55;;;;;;;8.88;3.70;;;10.90;99.90;;;;;;6278187;22;20011;-84
2022/07/08 03:30:21;;;;;;;8.90;4.15;;;10.90;99.90;;;;;;6252132;22;20070;-85
2022/07/08 03:32:46;;;;;;;11.02;3.42;;;10.90;99.90;;;;;;6278526;22;20030;-85
2022/07/08 03:35:12;;;;;;;8.60;3.92;;;10.90;99.90;;;;;;6253035;22;20019;-85
2022/07/08 03:37:42;;;;;;;7.32;4.05;;;10.90;99.90;;;;;;6252835;22;20007;-84
2022/07/08 03:42:53;;;;;;;7.07;4.40;;;10.80;99.90;;;;;;6277697;22;20090;-85
2022/07/08 03:45:19;;;;;;;10.82;4.95;;;10.70;99.90;;;;;;6252275;22;20128;-84
2022/07/08 03:47:45;;;;;;;7.90;4.30;;;10.80;99.90;;;;;;6252643;22;20007;-84
2022/07/08 03:50:11;;;;;;;7.25;5.00;;;10.80;99.90;;;;;;6277388;22;20011;-84
2022/07/08 03:52:37;;;;;;;7.40;5.40;;;10.70;99.90;;;;;;6252928;22;20022;-85
2022/07/08 03:55:02;;;;;;;10.90;5.55;;;10.80;99.90;;;;;;6278321;22;20089;-84
2022/07/08 03:57:28;;;;;;;9.75;4.43;;;10.70;99.90;;;;;;6277758;22;20011;-85
2022/07/08 03:59:54;;;;;;;12.38;5.25;;;10.70;99.90;;;;;;6251473;22;20007;-85
2022/07/08 04:02:19;;;;;;;8.73;5.10;;;10.70;99.90;;;;;;6277925;22;20039;-85
2022/07/08 04:04:45;;;;;;;10.48;5.40;;;10.70;99.90;;;;;;6252899;22;20017;-85
2022/07/08 04:07:10;;;;;;;8.40;5.30;;;10.70;99.90;;;;;;6254203;22;20003;-85
2022/07/08 04:09:36;;;;;;;7.25;5.13;;;10.70;99.90;;;;;;6253024;22;20015;-85
2022/07/08 04:12:02;;;;;;;9.57;4.85;;;10.80;99.90;;;;;;6254335;22;20015;-85
2022/07/08 04:14:27;;;;;;;10.27;5.20;;;10.80;99.90;;;;;;6253501;22;20016;-85
2022/07/08 04:16:53;;;;;;;11.98;5.13;;;10.90;99.90;;;;;;6279644;22;20459;-84
2022/07/08 04:19:18;;;;;;;10.63;5.45;;;10.90;99.90;;;;;;6253044;22;20007;-85
2022/07/08 04:21:44;;;;;;;9.75;5.18;;;11.00;99.90;;;;;;6254099;22;20011;-85
2022/07/08 04:24:10;;;;;;;17.25;6.15;;;11.00;99.90;;;;;;6253618;22;20090;-85
2022/07/08 04:26:35;;;;;;;10.00;5.38;;;11.10;99.90;;;;;;6254402;22;20015;-85
2022/07/08 04:29:01;;;;;;;12.82;5.88;;;11.20;99.90;;;;;;6253167;22;20018;-85
2022/07/08 04:31:28;;;;;;;10.40;4.95;;;11.30;99.90;;;;;;6254450;22;20094;-85
2022/07/08 04:33:54;;;;;;;10.57;4.35;;;11.50;99.90;;;;;;6254475;22;20324;-85
2022/07/08 04:36:20;;;;;;;12.90;5.32;;;11.60;99.90;;;;;;6254492;22;20140;-85
2022/07/08 04:38:46;;;;;;;10.48;4.53;;;11.70;99.90;;;;;;6278253;22;20011;-84
2022/07/08 04:41:12;;;;;;;8.00;3.83;;;11.70;99.90;;;;;;6279856;22;20011;-85
2022/07/08 04:43:38;;;;;;;9.85;4.38;;;11.70;99.90;;;;;;6253883;22;20030;-84
2022/07/08 04:46:04;;;;;;;9.15;4.15;;;11.90;99.90;;;;;;6254276;22;20366;-85
2022/07/08 04:48:32;;;;;;;12.23;4.45;;;11.90;99.90;;;;;;6253425;22;20052;-85
2022/07/08 04:50:58;;;;;;;11.02;4.50;;;12.10;99.90;;;;;;6278639;22;20011;-84
2022/07/08 04:53:24;;;;;;;17.38;5.43;;;12.10;99.90;;;;;;6254015;22;20498;-84
2022/07/08 04:55:49;;;;;;;14.43;5.22;;;12.20;99.90;;;;;;6253532;22;20014;-84
2022/07/08 04:58:15;;;;;;;12.48;4.80;;;12.30;99.90;;;;;;6279656;22;20335;-85
2022/07/08 05:00:41;;;;;;;10.20;4.32;;;12.30;99.90;;;;;;6279073;22;20528;-85
2022/07/08 05:03:06;;;;;;;13.50;6.05;;;12.40;99.90;;;;;;6253054;22;20011;-84
2022/07/08 05:05:33;;;;;;;10.05;3.85;;;12.50;99.90;;;;;;6253994;22;20474;-85
2022/07/08 05:08:00;;;;;;;10.95;5.38;;;12.70;99.90;;;;;;6253569;22;20011;-85
2022/07/08 05:10:27;;;;;;;9.43;3.75;;;12.80;99.90;;;;;;6253751;22;20015;-85
2022/07/08 05:12:53;;;;;;;16.25;4.03;;;13.10;99.90;;;;;;6253328;22;20015;-85
2022/07/08 05:15:19;;;;;;;10.07;3.70;;;13.40;99.90;;;;;;6279485;22;20007;-86
2022/07/08 05:17:46;;;;;;;11.77;3.28;;;13.90;99.90;;;;;;6253249;22;20061;-86
2022/07/08 05:20:12;;;;;;;9.23;3.20;;;14.30;99.90;;;;;;6278931;22;20015;-85
2022/07/08 05:22:38;;;;;;;9.30;2.28;;;14.60;99.90;;;;;;6252264;22;20470;-86
2022/07/08 05:25:04;;;;;;;11.10;2.50;;;14.90;99.90;;;;;;6253304;22;20003;-85
2022/07/08 05:27:30;;;;;;;6.03;2.20;;;15.30;99.90;;;;;;6253704;22;20014;-86
2022/07/08 05:29:56;;;;;;;6.35;2.30;;;15.50;99.90;;;;;;6253191;22;20037;-85
2022/07/08 05:32:22;;;;;;;8.63;2.17;;;15.60;99.90;;;;;;6278789;22;20007;-84
2022/07/08 05:34:47;;;;;;;8.60;2.20;;;15.50;99.90;;;;;;6279116;22;20396;-86
2022/07/08 05:37:13;;;;;;;9.00;2.42;;;15.50;99.90;;;;;;6252809;22;20015;-85
2022/07/08 05:39:40;;;;;;;8.05;2.38;;;15.40;99.90;;;;;;6252667;22;20335;-86
2022/07/08 05:42:07;;;;;;;7.32;2.22;;;15.40;99.90;;;;;;6253358;22;20007;-86
2022/07/08 05:44:34;;;;;;;6.85;1.90;;;15.30;99.90;;;;;;6253299;22;20007;-86
2022/07/08 05:46:59;;;;;;;10.45;1.98;;;15.30;99.90;;;;;;6253848;22;20009;-86
2022/07/08 05:49:25;;;;;;;6.13;2.00;;;15.30;99.90;;;;;;6253317;22;20090;-86
2022/07/08 05:51:50;;;;;;;9.45;2.03;;;15.30;99.90;;;;;;6251707;22;20011;-86
2022/07/08 05:54:16;;;;;;;7.20;1.90;;;15.40;99.90;;;;;;6251909;22;20011;-86
2022/07/08 05:56:42;;;;;;;10.05;2.20;;;15.40;99.90;;;;;;6253426;22;20110;-86
2022/07/08 05:59:07;;;;;;;9.38;2.17;;;15.40;99.90;;;;;;6253296;22;20471;-87
2022/07/08 06:01:33;;;;;;;8.45;2.65;;;15.50;99.90;;;;;;6252167;22;20011;-86
2022/07/08 06:03:59;;;;;;;11.95;2.10;;;15.40;99.90;;;;;;6253500;22;20011;-86
2022/07/08 06:06:24;;;;;;;6.47;2.13;;;15.50;99.90;;;;;;6253061;22;20007;-86
2022/07/08 06:08:50;;;;;;;7.88;1.88;;;15.60;99.90;;;;;;6253271;22;20061;-86
2022/07/08 06:11:15;;;;;;;9.75;1.83;;;15.60;99.90;;;;;;6253131;22;20007;-86
2022/07/08 06:13:41;;;;;;;8.50;2.08;;;15.60;99.90;;;;;;6253298;22;20015;-85
2022/07/08 06:16:07;;;;;;;8.43;2.25;;;15.60;99.90;;;;;;6252398;22;20418;-86
2022/07/08 06:18:34;;;;;;;7.90;1.67;;;15.60;99.90;;;;;;6278071;22;20015;-87
2022/07/08 06:21:00;;;;;;;8.45;2.00;;;15.70;99.90;;;;;;6252396;22;20473;-85
2022/07/08 06:23:25;;;;;;;9.90;1.88;;;15.70;99.90;;;;;;6252609;22;20003;-86
2022/07/08 06:25:51;;;;;;;9.13;1.70;;;15.80;99.90;;;;;;6252811;22;20104;-87
2022/07/08 06:28:17;;;;;;;10.48;2.10;;;15.80;99.90;;;;;;6253071;22;20018;-87
2022/07/08 06:30:42;;;;;;;8.32;1.90;;;15.80;99.90;;;;;;6252869;22;20072;-85
2022/07/08 06:33:08;;;;;;;12.40;2.25;;;16.00;99.90;;;;;;6252033;22;20386;-85
2022/07/08 06:35:34;;;;;;;9.13;2.00;;;16.30;99.90;;;;;;6253204;22;20015;-85
2022/07/08 06:38:01;;;;;;;10.63;2.10;;;16.40;99.90;;;;;;6253331;22;20041;-85
2022/07/08 06:40:27;;;;;;;6.38;1.92;;;16.50;99.90;;;;;;6252628;22;20018;-87
2022/07/08 06:42:52;;;;;;;10.60;1.92;;;16.70;99.90;;;;;;6252411;22;20007;-88
2022/07/08 06:45:18;;;;;;;6.68;1.77;;;16.80;99.90;;;;;;6252958;22;20336;-88
2022/07/08 06:47:44;;;;;;;11.25;2.45;;;16.90;99.90;;;;;;6252282;22;20068;-87
2022/07/08 06:50:10;;;;;;;8.90;2.10;;;17.00;99.90;;;;;;6253116;22;20085;-88
2022/07/08 06:52:36;;;;;;;10.50;2.40;;;17.10;99.90;;;;;;6252410;22;20382;-87
2022/07/08 06:55:03;;;;;;;10.40;2.00;;;17.10;99.90;;;;;;6252633;22;20069;-86
2022/07/08 06:57:28;;;;;;;6.97;1.73;;;17.10;99.90;;;;;;6251563;22;20049;-88
2022/07/08 06:59:54;;;;;;;8.23;2.13;;;17.20;99.90;;;;;;6251461;22;20011;-90
2022/07/08 07:02:20;;;;;;;7.70;2.70;;;17.20;99.90;;;;;;6252534;22;20011;-91
2022/07/08 07:04:46;;;;;;;10.55;1.77;;;17.30;99.90;;;;;;6252348;22;20007;-91
2022/07/08 07:07:11;;;;;;;36.50;3.33;;;17.40;99.90;;;;;;6253346;22;20354;-90
2022/07/08 07:09:38;;;;;;;7.28;1.80;;;17.60;99.90;;;;;;6252802;22;20472;-90
2022/07/08 07:12:06;;;;;;;9.38;1.80;;;17.60;99.90;;;;;;6251586;22;20014;-89
2022/07/08 07:14:32;;;;;;;20.58;3.13;;;17.70;99.90;;;;;;6252746;22;20050;-90
2022/07/08 07:16:59;;;;;;;12.15;2.03;;;17.80;99.90;;;;;;6252460;22;20055;-90
2022/07/08 07:19:24;;;;;;;7.88;2.10;;;17.90;99.90;;;;;;6251709;22;20057;-89
2022/07/08 07:21:50;;;;;;;9.50;2.05;;;18.00;99.90;;;;;;6279037;22;20007;-89
2022/07/08 07:24:21;;;;;;;10.65;2.17;;;18.10;99.90;;;;;;6256261;22;20011;-90
2022/07/08 07:26:47;;;;;;;5.88;1.70;;;18.20;99.90;;;;;;6255313;22;20011;-89
2022/07/08 07:29:13;;;;;;;10.45;2.10;;;18.30;99.90;;;;;;6253530;22;20023;-89
2022/07/08 07:31:39;;;;;;;6.78;1.70;;;18.40;99.90;;;;;;6254276;22;20015;-90
2022/07/08 07:34:08;;;;;;;12.50;2.50;;;18.50;99.90;;;;;;6254331;22;20060;-89
2022/07/08 07:36:33;;;;;;;9.20;1.92;;;18.50;99.90;;;;;;6254476;22;20455;-91
2022/07/08 07:39:09;;;;;;;5.10;1.73;;;18.60;99.90;;;;;;6278031;22;20014;-90
2022/07/08 07:41:36;;;;;;;8.73;2.15;;;18.80;99.90;;;;;;6255072;22;20086;-89
2022/07/08 07:44:03;;;;;;;12.48;2.05;;;18.90;99.90;;;;;;6254590;22;20011;-89
2022/07/08 07:46:28;;;;;;;8.38;2.20;;;19.10;99.90;;;;;;6254224;22;20382;-91
2022/07/08 07:48:54;;;;;;;8.45;1.95;;;19.20;99.90;;;;;;6279907;22;20049;-90
2022/07/08 07:51:21;;;;;;;6.82;1.60;;;19.30;99.90;;;;;;6254183;22;20045;-90
2022/07/08 07:53:47;;;;;;;7.85;1.85;;;19.50;99.90;;;;;;6280032;22;20086;-91
2022/07/08 07:56:12;;;;;;;7.38;1.88;;;19.70;99.90;;;;;;6253467;22;20043;-90
2022/07/08 07:58:38;;;;;;;8.43;1.88;;;19.90;99.90;;;;;;6253262;22;20048;-91
2022/07/08 08:01:05;;;;;;;7.70;1.63;;;19.90;99.90;;;;;;6254620;22;20033;-88
2022/07/08 08:03:31;;;;;;;7.55;1.95;;;19.90;99.90;;;;;;6254579;22;20448;-86
2022/07/08 08:05:56;;;;;;;9.27;2.42;;;19.90;99.90;;;;;;6253281;22;20432;-86
2022/07/08 08:08:24;;;;;;;7.85;2.38;;;19.80;99.90;;;;;;6279863;22;20007;-86
2022/07/08 08:10:53;;;;;;;8.32;2.03;;;19.90;99.90;;;;;;6280275;22;20026;-86
2022/07/08 08:13:19;;;;;;;9.15;1.90;;;19.90;99.90;;;;;;6278869;22;20087;-86
2022/07/08 08:15:45;;;;;;;9.07;1.88;;;20.00;99.90;;;;;;6254065;22;20351;-86
2022/07/08 08:18:11;;;;;;;5.45;1.92;;;20.00;99.90;;;;;;6253319;22;20530;-86
2022/07/08 08:20:37;;;;;;;9.30;1.88;;;20.00;99.90;;;;;;6253551;22;20057;-87
2022/07/08 08:23:03;;;;;;;8.95;2.03;;;19.90;99.90;;;;;;6252148;22;20374;-87
2022/07/08 08:25:29;;;;;;;7.72;1.60;;;19.90;99.90;;;;;;6252640;22;20084;-85
2022/07/08 08:27:56;;;;;;;9.48;1.90;;;19.70;99.90;;;;;;6254271;22;20047;-86
2022/07/08 08:30:22;;;;;;;11.10;2.08;;;19.70;99.90;;;;;;6251853;22;20023;-86
2022/07/08 08:32:47;;;;;;;6.35;1.60;;;19.60;99.90;;;;;;6253604;22;20072;-86
2022/07/08 08:35:13;;;;;;;6.38;1.90;;;19.60;99.90;;;;;;6252328;22;20011;-86
2022/07/08 08:37:39;;;;;;;9.50;2.28;;;19.60;99.90;;;;;;6253415;22;20015;-87
2022/07/08 08:40:06;;;;;;;7.38;2.00;;;19.60;99.90;;;;;;6253233;22;20015;-86
2022/07/08 08:42:32;;;;;;;6.68;2.00;;;19.70;99.90;;;;;;6252636;22;20451;-86
2022/07/08 08:45:03;;;;;;;10.45;2.17;;;19.80;99.90;;;;;;6254089;22;20013;-87
2022/07/08 08:47:33;;;;;;;5.38;1.90;;;19.90;99.90;;;;;;6254143;22;20451;-86
2022/07/08 08:52:49;;;;;;;8.35;1.85;;;20.10;99.90;;;;;;6277167;22;20111;-85
2022/07/08 08:55:26;;;;;;;5.32;1.67;;;20.20;99.90;;;;;;6252464;22;20404;-86
2022/07/08 08:57:56;;;;;;;7.00;1.77;;;20.30;99.90;;;;;;6252108;22;20014;-86
2022/07/08 09:00:23;;;;;;;9.55;1.88;;;20.30;99.90;;;;;;6252889;22;20011;-86
2022/07/08 09:02:49;;;;;;;6.85;1.80;;;20.40;99.90;;;;;;6252135;22;20041;-86
2022/07/08 09:05:15;;;;;;;5.80;1.38;;;20.50;99.90;;;;;;6278436;22;20003;-86
2022/07/08 09:07:42;;;;;;;7.30;1.80;;;20.60;99.90;;;;;;6252292;22;20324;-88
2022/07/08 09:10:09;;;;;;;6.78;1.92;;;20.70;99.90;;;;;;6253588;22;20011;-85
2022/07/08 09:12:34;;;;;;;7.53;2.13;;;20.80;99.90;;;;;;6253123;22;20086;-87
2022/07/08 09:15:01;;;;;;;6.80;2.08;;;20.90;99.90;;;;;;6253213;22;20104;-86
2022/07/08 09:17:27;;;;;;;5.00;1.58;;;21.00;99.90;;;;;;6253937;22;20011;-87
2022/07/08 09:19:53;;;;;;;5.25;1.80;;;21.10;99.90;;;;;;6252689;22;20015;-86
2022/07/08 09:32:40;;;;;;;6.40;1.38;;;21.70;99.90;;;;;;6235473;22;20056;-83
2022/07/08 09:35:15;;;;;;;6.78;1.52;;;21.80;99.90;;;;;;6254250;22;20068;-82
2022/07/08 09:37:41;;;;;;;7.28;1.95;;;21.90;99.90;;;;;;6280070;22;20455;-82
2022/07/08 09:40:17;;;;;;;7.55;1.73;;;21.90;99.90;;;;;;6255473;22;20057;-83
2022/07/08 09:42:43;;;;;;;8.18;1.67;;;21.90;99.90;;;;;;6280566;22;20086;-83
2022/07/08 09:45:09;;;;;;;5.68;1.60;;;21.80;99.90;;;;;;6253028;22;20046;-83
2022/07/08 09:47:34;;;;;;;5.75;1.83;;;21.70;99.90;;;;;;6280590;22;20039;-83
2022/07/08 09:50:00;;;;;;;6.57;1.60;;;21.60;99.90;;;;;;6255963;22;20517;-82
2022/07/08 09:52:26;;;;;;;7.53;1.48;;;21.60;99.90;;;;;;6280251;22;20474;-83
2022/07/08 09:55:04;;;;;;;6.97;1.80;;;21.60;99.90;;;;;;6254499;22;20015;-82
2022/07/08 09:57:37;;;;;;;6.05;1.63;;;21.70;99.90;;;;;;6254684;22;20014;-82
2022/07/08 10:00:05;;;;;;;6.20;1.63;;;21.80;99.90;;;;;;6255523;22;20075;-82
2022/07/08 10:02:34;;;;;;;6.53;1.95;;;21.80;99.90;;;;;;6280210;22;20347;-82
2022/07/08 10:05:00;;;;;;;7.53;2.10;;;21.80;99.90;;;;;;6281218;22;20013;-83
2022/07/08 10:07:26;;;;;;;5.43;2.00;;;21.70;99.90;;;;;;6255996;22;20089;-82
2022/07/08 10:09:51;;;;;;;10.88;1.92;;;21.70;99.90;;;;;;6254667;22;20052;-83
2022/07/08 10:12:21;;;;;;;9.40;2.97;;;21.70;99.90;;;;;;6255477;22;20446;-83
2022/07/08 10:14:59;;;;;;;7.13;2.08;;;21.70;99.90;;;;;;6256778;22;20022;-82
2022/07/08 10:17:32;;;;;;;5.25;1.90;;;21.80;99.90;;;;;;6282791;22;20675;-82
2022/07/08 10:19:59;;;;;;;6.10;2.05;;;22.00;99.90;;;;;;6281296;22;20025;-83
2022/07/08 10:22:25;;;;;;;6.60;1.80;;;22.10;99.90;;;;;;6256102;22;20007;-81
2022/07/08 10:24:52;;;;;;;6.05;1.73;;;22.20;99.90;;;;;;6256427;22;20063;-83
2022/07/08 10:27:22;;;;;;;4.80;1.80;;;22.30;99.90;;;;;;6256590;22;20007;-84
2022/07/08 10:29:49;;;;;;;6.72;1.80;;;22.50;99.90;;;;;;6254077;22;20030;-83
2022/07/08 10:32:23;;;;;;;5.15;1.65;;;22.60;99.90;;;;;;6256206;22;20022;-83
2022/07/08 10:35:10;;;;;;;5.32;1.77;;;22.80;99.90;;;;;;6281152;22;20011;-84
2022/07/08 10:38:27;;;;;;;5.05;1.52;;;22.90;99.90;;;;;;6255549;22;20038;-83
2022/07/08 10:40:53;;;;;;;6.65;2.17;;;23.10;99.90;;;;;;6103787;23;20021;-84
2022/07/08 10:43:19;;;;;;;10.02;2.13;;;23.30;99.90;;;;;;6241641;22;20008;-83
2022/07/08 10:46:03;;;;;;;5.90;1.80;;;23.30;99.90;;;;;;6281175;22;20091;-83
2022/07/08 10:48:41;;;;;;;8.75;2.33;;;23.30;99.90;;;;;;6280628;22;20011;-84
2022/07/08 10:51:19;;;;;;;8.77;2.35;;;23.20;99.90;;;;;;6281561;22;20086;-84
2022/07/08 10:54:05;;;;;;;6.65;1.85;;;23.10;99.90;;;;;;6255710;22;20061;-82
2022/07/08 10:56:49;;;;;;;5.60;1.85;;;23.10;99.90;;;;;;6255991;22;20007;-84
2022/07/08 10:59:26;;;;;;;6.18;2.00;;;23.10;99.90;;;;;;6283814;22;20011;-82
2022/07/08 11:02:01;;;;;;;6.60;1.90;;;23.00;99.90;;;;;;6256424;22;20121;-84
2022/07/08 11:04:33;;;;;;;7.53;2.00;;;22.80;99.90;;;;;;6256016;22;20018;-84
2022/07/08 11:07:17;;;;;;;9.77;1.65;;;22.60;99.90;;;;;;6255968;22;20082;-85
2022/07/08 11:10:02;;;;;;;5.78;1.80;;;22.50;99.90;;;;;;6257387;22;20011;-83
2022/07/08 11:12:35;;;;;;;6.65;2.00;;;22.40;99.90;;;;;;6281334;22;20023;-82
2022/07/08 11:15:03;;;;;;;6.38;1.85;;;22.30;99.90;;;;;;6256067;22;20072;-84
2022/07/08 11:17:31;;;;;;;6.00;2.00;;;22.40;99.90;;;;;;6253878;22;20321;-85
2022/07/08 11:20:02;;;;;;;7.63;2.45;;;22.70;99.90;;;;;;6256942;22;20097;-85
2022/07/08 11:25:24;;;;;;;6.20;2.00;;;23.50;99.90;;;;;;6279461;22;20043;-84
2022/07/08 11:27:50;;;;;;;5.80;1.83;;;24.00;99.90;;;;;;6258969;22;20018;-83
2022/07/08 11:30:33;;;;;;;6.22;1.83;;;24.00;99.90;;;;;;6257706;22;20007;-85
2022/07/08 11:33:02;;;;;;;5.55;2.00;;;23.90;99.90;;;;;;6258274;22;20030;-84
2022/07/08 11:35:31;;;;;;;6.70;2.00;;;23.80;99.90;;;;;;6254778;22;20015;-84
2022/07/08 11:37:56;;;;;;;4.85;2.10;;;24.00;99.90;;;;;;6254417;22;20470;-85
2022/07/08 11:40:22;;;;;;;6.75;2.88;;;24.20;99.90;;;;;;6255031;22;20030;-85
2022/07/08 11:42:48;;;;;;;6.57;1.98;;;24.40;99.90;;;;;;6252587;22;20004;-85
2022/07/08 11:45:16;;;;;;;7.85;2.20;;;24.30;99.90;;;;;;6254686;22;20091;-86
2022/07/08 11:47:42;;;;;;;6.03;2.05;;;24.30;99.90;;;;;;6254095;22;20018;-85
2022/07/08 11:50:09;;;;;;;8.52;2.17;;;24.30;99.90;;;;;;6255642;22;20015;-85
2022/07/08 11:52:35;;;;;;;6.53;2.50;;;24.50;99.90;;;;;;6279781;22;20018;-85
2022/07/08 11:55:01;;;;;;;7.13;2.20;;;24.50;99.90;;;;;;6254414;22;20359;-85
2022/07/08 11:57:28;;;;;;;6.78;2.25;;;24.40;99.90;;;;;;6280162;22;20146;-85
2022/07/08 11:59:54;;;;;;;5.43;1.83;;;24.30;99.90;;;;;;6280155;22;20381;-85
2022/07/08 12:02:23;;;;;;;6.63;2.10;;;24.30;99.90;;;;;;6254489;22;20039;-84
2022/07/08 12:04:50;;;;;;;5.97;1.90;;;24.30;99.90;;;;;;6253963;22;20014;-85
2022/07/08 12:07:21;;;;;;;4.45;2.00;;;24.50;99.90;;;;;;6279144;22;20097;-85
2022/07/08 12:10:03;;;;;;;7.80;2.45;;;24.80;99.90;;;;;;6254024;22;20347;-84
2022/07/08 12:12:30;;;;;;;6.70;2.10;;;24.90;99.90;;;;;;6254651;22;20104;-85
2022/07/08 12:14:57;;;;;;;5.18;2.10;;;24.70;99.90;;;;;;6254453;22;20482;-85
2022/07/08 12:17:24;;;;;;;19.83;2.75;;;24.60;99.90;;;;;;6254315;22;20011;-85
2022/07/08 12:19:52;;;;;;;5.35;1.95;;;24.50;99.90;;;;;;6254291;22;20499;-85
2022/07/08 12:22:45;;;;;;;6.85;2.08;;;24.60;99.90;;;;;;6254198;22;20401;-84
2022/07/08 12:25:12;;;;;;;6.40;2.00;;;24.90;99.90;;;;;;6254698;22;20004;-84
2022/07/08 12:27:37;;;;;;;6.22;2.05;;;25.10;99.90;;;;;;6253608;22;20023;-85
2022/07/08 12:30:04;;;;;;;7.43;2.47;;;25.10;99.90;;;;;;6254685;22;20058;-84
2022/07/08 12:32:41;;;;;;;5.13;1.98;;;25.10;99.90;;;;;;6254649;22;20453;-85
2022/07/08 12:35:08;;;;;;;6.22;2.10;;;24.90;99.90;;;;;;6280193;22;20015;-85
2022/07/08 12:37:34;;;;;;;6.18;2.13;;;24.70;99.90;;;;;;6254551;22;20047;-84
2022/07/08 12:40:13;;;;;;;5.03;2.17;;;24.50;99.90;;;;;;6254608;22;20012;-85
2022/07/08 12:42:38;;;;;;;5.93;1.80;;;24.30;99.90;;;;;;6254364;22;20060;-84
2022/07/08 12:45:14;;;;;;;6.20;1.80;;;24.20;99.90;;;;;;6280047;22;20007;-84
2022/07/08 12:47:39;;;;;;;5.25;1.60;;;24.10;99.90;;;;;;6279733;22;20050;-85
2022/07/08 12:50:06;;;;;;;6.35;1.98;;;24.10;99.90;;;;;;6254554;22;20046;-85
2022/07/08 12:52:31;;;;;;;9.13;2.20;;;24.30;99.90;;;;;;6254107;22;20015;-85
2022/07/08 12:54:57;;;;;;;4.10;1.60;;;24.60;99.90;;;;;;6279353;22;20025;-85
2022/07/08 12:57:23;;;;;;;6.90;1.92;;;24.90;99.90;;;;;;6253803;22;20047;-85
2022/07/08 12:59:48;;;;;;;5.35;1.75;;;25.10;99.90;;;;;;6255047;22;20034;-84
2022/07/08 13:02:14;;;;;;;5.30;1.70;;;25.30;99.90;;;;;;6279650;22;20469;-86
2022/07/08 13:04:40;;;;;;;6.22;2.13;;;25.60;99.90;;;;;;6252967;22;20004;-85